LEGE

Girona-Costa Brava Airport

Airport
ICAO code
LEGE
IATA Code
GRO
Summary
ICAO Region
EUR
ICAO Territory
Location

Vilobí d'Onyar, Catalonia

Serving
Girona
Elevation
468 ft
Coordinates
41° 54' 14" N , 2° 45' 42" E
KCC
Metar
Observation
LEGE 241600Z 07009KT 020V140 9999 BKN030 20/15 Q1012
Station
Gerona / Costa Brava
Date/Time
2022-09-24 16:00:00
Wind direction
70°
Wind speed
09 kts
Lowest cloud amount
broken clouds
Temperature
20°C
Dew point
15°C
Humidity
72%
QNH
1012 hPa
Weather condition
n/a

Girona-Costa Brava Airport is an airport located 12.5 km southwest of the city of Girona, next to the small village of Vilobí d'Onyar, in the north-east of Catalonia, Spain. It is well connected to the Costa Brava, Barcelona and the Pyrenees.

Climatology

Humid “subtropical”/Mediterranean climate (Köppen climate classification Cfa/Csa) - characterized by hot, humid summers and cool winters. Significant amounts of precipitation occur in all seasons in most areas. Winter rainfall (and sometimes snowfall) is associated with large storms that the westerlies steer from west to east. Most summer rainfall occurs during thunderstorms. Cold winds from the Pyrenees in the winter can cause temperatures as low as -5C.

Runways

Designator Length Width Surface Rops
2/20 2400 45 ASP Yes/Yes

SKYbrary Partners:

Safety knowledge contributed by: